sensor_id;sensor_type;location;lat;lon;timestamp;pressure;altitude;pressure_sealevel;temperature;humidity
59168;BME280;70412;55.048;73.268;2024-03-17T00:02:25;101336.84;;;-9.13;100.00
59168;BME280;70412;55.048;73.268;2024-03-17T00:05:27;101341.88;;;-9.16;100.00
59168;BME280;70412;55.048;73.268;2024-03-17T00:08:30;101339.06;;;-9.25;100.00
59168;BME280;70412;55.048;73.268;2024-03-17T00:11:33;101346.88;;;-9.19;100.00
59168;BME280;70412;55.048;73.268;2024-03-17T00:14:44;101336.06;;;-9.10;100.00
59168;BME280;70412;55.048;73.268;2024-03-17T00:17:47;101342.72;;;-9.15;100.00
59168;BME280;70412;55.048;73.268;2024-03-17T00:20:50;101355.44;;;-9.15;100.00
59168;BME280;70412;55.048;73.268;2024-03-17T00:23:52;101354.41;;;-9.22;100.00
59168;BME280;70412;55.048;73.268;2024-03-17T00:26:55;101356.66;;;-9.33;100.00
59168;BME280;70412;55.048;73.268;2024-03-17T00:29:57;101355.56;;;-9.42;100.00
59168;BME280;70412;55.048;73.268;2024-03-17T00:33:00;101361.34;;;-9.48;100.00
59168;BME280;70412;55.048;73.268;2024-03-17T00:36:03;101352.75;;;-9.53;100.00
59168;BME280;70412;55.048;73.268;2024-03-17T00:39:05;101346.56;;;-9.61;100.00
59168;BME280;70412;55.048;73.268;2024-03-17T00:42:08;101351.38;;;-9.72;100.00
59168;BME280;70412;55.048;73.268;2024-03-17T00:45:10;101346.91;;;-9.79;100.00
59168;BME280;70412;55.048;73.268;2024-03-17T00:48:13;101348.47;;;-9.84;100.00
59168;BME280;70412;55.048;73.268;2024-03-17T00:51:16;101345.03;;;-9.86;100.00
59168;BME280;70412;55.048;73.268;2024-03-17T00:54:21;101345.66;;;-9.93;100.00
59168;BME280;70412;55.048;73.268;2024-03-17T00:57:24;101343.03;;;-9.96;100.00
59168;BME280;70412;55.048;73.268;2024-03-17T01:00:26;101345.44;;;-10.01;100.00
59168;BME280;70412;55.048;73.268;2024-03-17T01:03:29;101338.50;;;-10.06;100.00
59168;BME280;70412;55.048;73.268;2024-03-17T01:06:32;101346.00;;;-10.10;100.00
59168;BME280;70412;55.048;73.268;2024-03-17T01:09:34;101344.38;;;-10.07;100.00
59168;BME280;70412;55.048;73.268;2024-03-17T01:12:37;101341.97;;;-10.04;100.00
59168;BME280;70412;55.048;73.268;2024-03-17T01:15:40;101345.47;;;-9.99;100.00
59168;BME280;70412;55.048;73.268;2024-03-17T01:18:42;101348.03;;;-9.99;100.00
59168;BME280;70412;55.048;73.268;2024-03-17T01:21:47;101337.91;;;-9.98;100.00
59168;BME280;70412;55.048;73.268;2024-03-17T01:24:50;101337.25;;;-9.91;100.00
59168;BME280;70412;55.048;73.268;2024-03-17T01:31:13;101334.22;;;-9.79;100.00
59168;BME280;70412;55.048;73.268;2024-03-17T01:34:16;101349.00;;;-9.66;100.00
59168;BME280;70412;55.048;73.268;2024-03-17T01:37:18;101350.91;;;-9.57;100.00
59168;BME280;70412;55.048;73.268;2024-03-17T01:40:21;101352.16;;;-9.43;100.00
59168;BME280;70412;55.048;73.268;2024-03-17T01:43:23;101345.97;;;-9.21;100.00
59168;BME280;70412;55.048;73.268;2024-03-17T01:46:26;101314.88;;;-9.11;100.00
59168;BME280;70412;55.048;73.268;2024-03-17T01:52:52;101337.09;;;-8.35;100.00
59168;BME280;70412;55.048;73.268;2024-03-17T01:55:57;101330.91;;;-8.07;100.00
59168;BME280;70412;55.048;73.268;2024-03-17T01:59:01;101338.25;;;-7.83;100.00
59168;BME280;70412;55.048;73.268;2024-03-17T02:02:05;101337.75;;;-7.65;100.00
59168;BME280;70412;55.048;73.268;2024-03-17T02:05:10;101343.22;;;-7.47;100.00
59168;BME280;70412;55.048;73.268;2024-03-17T02:08:13;101302.41;;;-7.48;100.00
59168;BME280;70412;55.048;73.268;2024-03-17T02:14:26;101337.31;;;-6.99;100.00
59168;BME280;70412;55.048;73.268;2024-03-17T02:17:28;101340.91;;;-6.86;100.00
59168;BME280;70412;55.048;73.268;2024-03-17T02:20:31;101349.41;;;-6.87;100.00
59168;BME280;70412;55.048;73.268;2024-03-17T02:23:51;101321.22;;;-6.96;100.00
59168;BME280;70412;55.048;73.268;2024-03-17T02:26:54;101341.50;;;-7.02;100.00
59168;BME280;70412;55.048;73.268;2024-03-17T02:29:59;101347.38;;;-7.05;100.00
59168;BME280;70412;55.048;73.268;2024-03-17T02:33:02;101311.38;;;-7.23;100.00
59168;BME280;70412;55.048;73.268;2024-03-17T02:36:07;101326.69;;;-7.22;100.00
59168;BME280;70412;55.048;73.268;2024-03-17T02:39:11;101351.25;;;-7.25;100.00
59168;BME280;70412;55.048;73.268;2024-03-17T02:42:50;101354.72;;;-7.22;100.00
59168;BME280;70412;55.048;73.268;2024-03-17T02:45:53;101344.50;;;-7.23;100.00
59168;BME280;70412;55.048;73.268;2024-03-17T02:48:55;101268.09;;;-7.67;100.00
59168;BME280;70412;55.048;73.268;2024-03-17T02:51:58;101331.22;;;-7.06;100.00
59168;BME280;70412;55.048;73.268;2024-03-17T02:55:01;101324.97;;;-6.73;100.00
59168;BME280;70412;55.048;73.268;2024-03-17T02:58:04;101342.53;;;-6.38;100.00
59168;BME280;70412;55.048;73.268;2024-03-17T03:01:06;101339.50;;;-6.15;100.00
59168;BME280;70412;55.048;73.268;2024-03-17T03:04:09;101345.47;;;-6.12;100.00
59168;BME280;70412;55.048;73.268;2024-03-17T03:07:11;101345.31;;;-6.22;100.00
59168;BME280;70412;55.048;73.268;2024-03-17T03:10:14;101343.69;;;-6.20;100.00
59168;BME280;70412;55.048;73.268;2024-03-17T03:13:17;101337.13;;;-6.02;100.00
59168;BME280;70412;55.048;73.268;2024-03-17T03:16:19;101325.34;;;-5.90;100.00
59168;BME280;70412;55.048;73.268;2024-03-17T03:19:22;101348.81;;;-5.53;100.00
59168;BME280;70412;55.048;73.268;2024-03-17T03:22:24;101332.84;;;-5.34;100.00
59168;BME280;70412;55.048;73.268;2024-03-17T03:25:27;101268.09;;;-5.33;100.00
59168;BME280;70412;55.048;73.268;2024-03-17T03:28:31;101324.31;;;-4.39;100.00
59168;BME280;70412;55.048;73.268;2024-03-17T03:31:36;101337.41;;;-3.96;100.00
59168;BME280;70412;55.048;73.268;2024-03-17T03:34:44;101338.34;;;-3.83;100.00
59168;BME280;70412;55.048;73.268;2024-03-17T03:37:47;101345.19;;;-3.79;100.00
59168;BME280;70412;55.048;73.268;2024-03-17T03:40:49;101353.72;;;-3.82;100.00
59168;BME280;70412;55.048;73.268;2024-03-17T03:43:52;101354.59;;;-3.75;100.00
59168;BME280;70412;55.048;73.268;2024-03-17T03:46:55;101360.47;;;-3.94;100.00
59168;BME280;70412;55.048;73.268;2024-03-17T03:50:00;101351.16;;;-3.85;100.00
59168;BME280;70412;55.048;73.268;2024-03-17T03:53:05;101357.22;;;-3.63;100.00
59168;BME280;70412;55.048;73.268;2024-03-17T03:56:08;101341.72;;;-3.90;100.00
59168;BME280;70412;55.048;73.268;2024-03-17T03:59:12;101348.59;;;-3.80;100.00
59168;BME280;70412;55.048;73.268;2024-03-17T04:02:15;101360.66;;;-3.61;100.00
59168;BME280;70412;55.048;73.268;2024-03-17T04:05:18;101364.22;;;-3.24;100.00
59168;BME280;70412;55.048;73.268;2024-03-17T04:08:21;101367.69;;;-3.11;100.00
59168;BME280;70412;55.048;73.268;2024-03-17T04:11:26;101366.78;;;-3.28;99.80
59168;BME280;70412;55.048;73.268;2024-03-17T04:14:29;101365.94;;;-3.24;98.88
59168;BME280;70412;55.048;73.268;2024-03-17T04:17:33;101343.69;;;-3.28;99.32
59168;BME280;70412;55.048;73.268;2024-03-17T04:20:35;101354.03;;;-2.89;98.61
59168;BME280;70412;55.048;73.268;2024-03-17T04:23:38;101353.19;;;-2.78;95.60
59168;BME280;70412;55.048;73.268;2024-03-17T04:26:40;101357.47;;;-2.77;94.69
59168;BME280;70412;55.048;73.268;2024-03-17T04:29:47;101368.63;;;-2.46;95.75
59168;BME280;70412;55.048;73.268;2024-03-17T04:32:52;101361.75;;;-2.54;93.04
59168;BME280;70412;55.048;73.268;2024-03-17T04:35:55;101372.91;;;-2.53;92.79
59168;BME280;70412;55.048;73.268;2024-03-17T04:38:57;101359.22;;;-2.31;93.31
59168;BME280;70412;55.048;73.268;2024-03-17T04:42:03;101371.19;;;-2.14;90.44
59168;BME280;70412;55.048;73.268;2024-03-17T04:45:07;101378.91;;;-2.34;88.00
59168;BME280;70412;55.048;73.268;2024-03-17T04:48:11;101379.75;;;-2.37;89.80
59168;BME280;70412;55.048;73.268;2024-03-17T04:51:16;101386.59;;;-2.11;89.17
59168;BME280;70412;55.048;73.268;2024-03-17T04:54:19;101372.03;;;-2.14;88.48
59168;BME280;70412;55.048;73.268;2024-03-17T04:57:21;101369.41;;;-1.79;88.93
59168;BME280;70412;55.048;73.268;2024-03-17T05:00:23;101374.38;;;-1.36;85.84
59168;BME280;70412;55.048;73.268;2024-03-17T05:03:26;101375.25;;;-1.39;84.96
59168;BME280;70412;55.048;73.268;2024-03-17T05:06:28;101378.69;;;-1.31;84.50
59168;BME280;70412;55.048;73.268;2024-03-17T05:09:31;101372.47;;;-0.94;83.81
59168;BME280;70412;55.048;73.268;2024-03-17T05:12:34;101369.03;;;-0.92;82.40
59168;BME280;70412;55.048;73.268;2024-03-17T05:15:36;101334.44;;;-0.59;82.49
59168;BME280;70412;55.048;73.268;2024-03-17T05:18:41;101357.19;;;-0.07;80.43
59168;BME280;70412;55.048;73.268;2024-03-17T05:21:46;101357.75;;;0.23;78.55
59168;BME280;70412;55.048;73.268;2024-03-17T05:24:49;101352.28;;;0.47;78.10
59168;BME280;70412;55.048;73.268;2024-03-17T05:27:51;101346.03;;;0.65;75.54
59168;BME280;70412;55.048;73.268;2024-03-17T05:30:54;101355.25;;;0.86;75.03
59168;BME280;70412;55.048;73.268;2024-03-17T05:33:59;101353.44;;;0.92;72.93
59168;BME280;70412;55.048;73.268;2024-03-17T05:37:02;101360.81;;;1.17;72.47
59168;BME280;70412;55.048;73.268;2024-03-17T05:40:06;101351.97;;;1.33;71.58
59168;BME280;70412;55.048;73.268;2024-03-17T05:43:09;101333.94;;;1.28;70.43
59168;BME280;70412;55.048;73.268;2024-03-17T05:46:30;101356.75;;;1.57;69.44
59168;BME280;70412;55.048;73.268;2024-03-17T05:49:32;101344.00;;;1.47;69.00
59168;BME280;70412;55.048;73.268;2024-03-17T05:52:35;101356.28;;;1.32;68.12
59168;BME280;70412;55.048;73.268;2024-03-17T05:55:38;101342.34;;;1.42;68.90
59168;BME280;70412;55.048;73.268;2024-03-17T05:58:41;101347.16;;;2.12;68.63
59168;BME280;70412;55.048;73.268;2024-03-17T06:01:46;101348.78;;;2.17;66.53
59168;BME280;70412;55.048;73.268;2024-03-17T06:04:49;101326.84;;;1.42;66.98
59168;BME280;70412;55.048;73.268;2024-03-17T06:07:51;101342.94;;;1.01;67.89
59168;BME280;70412;55.048;73.268;2024-03-17T06:10:54;101345.19;;;1.26;70.19
59168;BME280;70412;55.048;73.268;2024-03-17T06:13:58;101341.22;;;1.05;68.91
59168;BME280;70412;55.048;73.268;2024-03-17T06:17:04;101335.81;;;1.20;70.47
59168;BME280;70412;55.048;73.268;2024-03-17T06:20:07;101337.53;;;1.18;68.86
59168;BME280;70412;55.048;73.268;2024-03-17T06:23:14;101345.03;;;0.76;69.79
59168;BME280;70412;55.048;73.268;2024-03-17T06:26:17;101350.13;;;0.81;72.22
59168;BME280;70412;55.048;73.268;2024-03-17T06:29:20;101337.97;;;0.91;70.42
59168;BME280;70412;55.048;73.268;2024-03-17T06:32:22;101343.84;;;0.99;70.61
59168;BME280;70412;55.048;73.268;2024-03-17T06:35:25;101336.50;;;0.71;72.32
59168;BME280;70412;55.048;73.268;2024-03-17T06:38:28;101330.63;;;1.22;72.50
59168;BME280;70412;55.048;73.268;2024-03-17T06:41:31;101330.13;;;1.51;71.57
59168;BME280;70412;55.048;73.268;2024-03-17T06:44:34;101329.75;;;1.23;70.46
59168;BME280;70412;55.048;73.268;2024-03-17T06:47:38;101260.38;;;0.97;69.90
59168;BME280;70412;55.048;73.268;2024-03-17T06:50:41;101331.94;;;1.46;71.66
59168;BME280;70412;55.048;73.268;2024-03-17T06:53:44;101329.03;;;1.65;71.14
59168;BME280;70412;55.048;73.268;2024-03-17T06:56:46;101318.31;;;1.37;70.46
59168;BME280;70412;55.048;73.268;2024-03-17T06:59:49;101328.97;;;1.16;72.20
59168;BME280;70412;55.048;73.268;2024-03-17T07:02:51;101321.34;;;1.08;72.70
59168;BME280;70412;55.048;73.268;2024-03-17T07:05:58;101324.28;;;1.41;73.22
59168;BME280;70412;55.048;73.268;2024-03-17T07:09:04;101300.44;;;1.24;73.30
59168;BME280;70412;55.048;73.268;2024-03-17T07:12:08;101317.25;;;1.48;73.34
59168;BME280;70412;55.048;73.268;2024-03-17T07:15:29;101317.56;;;1.80;74.10
59168;BME280;70412;55.048;73.268;2024-03-17T07:18:32;101322.66;;;1.86;73.17
59168;BME280;70412;55.048;73.268;2024-03-17T07:21:35;101306.31;;;1.81;73.83
59168;BME280;70412;55.048;73.268;2024-03-17T07:24:44;101316.09;;;2.13;73.87
59168;BME280;70412;55.048;73.268;2024-03-17T07:27:47;101292.81;;;2.12;73.23
59168;BME280;70412;55.048;73.268;2024-03-17T07:30:52;101308.53;;;2.01;72.56
59168;BME280;70412;55.048;73.268;2024-03-17T07:33:55;101302.78;;;1.85;73.50
59168;BME280;70412;55.048;73.268;2024-03-17T07:36:57;101301.31;;;2.20;74.04
59168;BME280;70412;55.048;73.268;2024-03-17T07:40:04;101303.03;;;2.18;72.91
59168;BME280;70412;55.048;73.268;2024-03-17T07:43:08;101278.06;;;2.15;74.25
59168;BME280;70412;55.048;73.268;2024-03-17T07:46:12;101289.84;;;2.30;73.56
59168;BME280;70412;55.048;73.268;2024-03-17T07:49:14;101262.19;;;2.32;74.39
59168;BME280;70412;55.048;73.268;2024-03-17T07:52:18;101263.75;;;2.41;74.46
59168;BME280;70412;55.048;73.268;2024-03-17T07:55:20;101265.06;;;2.60;73.74
59168;BME280;70412;55.048;73.268;2024-03-17T07:58:25;101234.06;;;2.57;73.54
59168;BME280;70412;55.048;73.268;2024-03-17T08:01:28;101263.59;;;2.87;72.13
59168;BME280;70412;55.048;73.268;2024-03-17T08:04:30;101271.69;;;2.73;71.42
59168;BME280;70412;55.048;73.268;2024-03-17T08:07:33;101265.66;;;2.73;73.03
59168;BME280;70412;55.048;73.268;2024-03-17T08:10:37;101258.41;;;2.87;73.21
59168;BME280;70412;55.048;73.268;2024-03-17T08:13:41;101247.91;;;2.93;72.08
59168;BME280;70412;55.048;73.268;2024-03-17T08:16:43;101230.44;;;2.64;71.79
59168;BME280;70412;55.048;73.268;2024-03-17T08:19:45;101230.66;;;2.55;71.99
59168;BME280;70412;55.048;73.268;2024-03-17T08:22:49;101245.13;;;2.23;72.82
59168;BME280;70412;55.048;73.268;2024-03-17T08:25:56;101241.91;;;2.12;75.05
59168;BME280;70412;55.048;73.268;2024-03-17T08:28:58;101246.00;;;2.24;75.00
59168;BME280;70412;55.048;73.268;2024-03-17T08:32:01;101237.75;;;2.45;74.14
59168;BME280;70412;55.048;73.268;2024-03-17T08:35:03;101233.47;;;2.44;73.55
59168;BME280;70412;55.048;73.268;2024-03-17T08:38:06;101230.41;;;2.27;72.88
59168;BME280;70412;55.048;73.268;2024-03-17T08:41:12;101221.06;;;2.20;73.78
59168;BME280;70412;55.048;73.268;2024-03-17T08:44:15;101218.75;;;2.46;73.20
59168;BME280;70412;55.048;73.268;2024-03-17T08:47:18;101218.56;;;2.55;71.51
59168;BME280;70412;55.048;73.268;2024-03-17T08:50:20;101175.50;;;2.50;71.83
59168;BME280;70412;55.048;73.268;2024-03-17T08:53:23;101219.56;;;2.87;68.81
59168;BME280;70412;55.048;73.268;2024-03-17T08:56:26;101214.66;;;2.75;66.50
59168;BME280;70412;55.048;73.268;2024-03-17T08:59:28;101203.34;;;2.40;66.10
59168;BME280;70412;55.048;73.268;2024-03-17T09:02:31;101211.50;;;2.62;65.43
59168;BME280;70412;55.048;73.268;2024-03-17T09:05:33;101194.00;;;2.33;62.47
59168;BME280;70412;55.048;73.268;2024-03-17T09:08:36;101217.19;;;2.39;64.02
59168;BME280;70412;55.048;73.268;2024-03-17T09:11:38;101209.50;;;2.36;62.33
59168;BME280;70412;55.048;73.268;2024-03-17T09:14:47;101215.66;;;2.68;60.49
59168;BME280;70412;55.048;73.268;2024-03-17T09:17:50;101206.38;;;2.59;60.73
59168;BME280;70412;55.048;73.268;2024-03-17T09:21:03;101207.88;;;2.68;59.16
59168;BME280;70412;55.048;73.268;2024-03-17T09:24:08;101198.22;;;2.76;59.22
59168;BME280;70412;55.048;73.268;2024-03-17T09:27:11;101207.84;;;2.71;56.79
59168;BME280;70412;55.048;73.268;2024-03-17T09:30:13;101196.72;;;2.66;58.25
59168;BME280;70412;55.048;73.268;2024-03-17T09:33:16;101185.31;;;2.74;57.38
59168;BME280;70412;55.048;73.268;2024-03-17T09:36:37;101193.03;;;2.76;55.89
59168;BME280;70412;55.048;73.268;2024-03-17T09:39:47;101190.56;;;2.71;56.17
59168;BME280;70412;55.048;73.268;2024-03-17T09:42:50;101185.06;;;2.83;55.73
59168;BME280;70412;55.048;73.268;2024-03-17T09:45:53;101182.75;;;2.73;54.25
59168;BME280;70412;55.048;73.268;2024-03-17T09:48:59;101177.56;;;2.73;54.42
59168;BME280;70412;55.048;73.268;2024-03-17T09:52:01;101184.38;;;2.77;53.84
59168;BME280;70412;55.048;73.268;2024-03-17T09:55:15;101170.69;;;2.72;53.93
59168;BME280;70412;55.048;73.268;2024-03-17T09:58:18;101174.09;;;2.74;54.03
59168;BME280;70412;55.048;73.268;2024-03-17T10:01:21;101173.94;;;2.80;54.32
59168;BME280;70412;55.048;73.268;2024-03-17T10:04:33;101166.38;;;2.72;54.10
59168;BME280;70412;55.048;73.268;2024-03-17T10:07:39;101166.75;;;2.55;52.80
59168;BME280;70412;55.048;73.268;2024-03-17T10:10:41;101170.31;;;2.50;53.93
59168;BME280;70412;55.048;73.268;2024-03-17T10:13:44;101147.38;;;2.36;53.60
59168;BME280;70412;55.048;73.268;2024-03-17T10:16:47;101168.81;;;2.41;54.51
59168;BME280;70412;55.048;73.268;2024-03-17T10:19:52;101161.16;;;2.35;53.99
59168;BME280;70412;55.048;73.268;2024-03-17T10:23:05;101159.81;;;2.19;52.82
59168;BME280;70412;55.048;73.268;2024-03-17T10:26:14;101176.59;;;2.01;54.47
59168;BME280;70412;55.048;73.268;2024-03-17T10:32:32;101175.34;;;2.19;53.97
59168;BME280;70412;55.048;73.268;2024-03-17T10:35:36;101169.22;;;2.23;53.40
59168;BME280;70412;55.048;73.268;2024-03-17T10:38:51;101162.25;;;1.86;53.24
59168;BME280;70412;55.048;73.268;2024-03-17T10:42:03;101168.03;;;1.97;53.28
59168;BME280;70412;55.048;73.268;2024-03-17T10:45:08;101163.22;;;1.81;53.51
59168;BME280;70412;55.048;73.268;2024-03-17T10:48:16;101181.53;;;1.71;54.71
59168;BME280;70412;55.048;73.268;2024-03-17T10:51:20;101156.69;;;1.63;53.87
59168;BME280;70412;55.048;73.268;2024-03-17T10:54:25;101167.00;;;1.64;54.49
59168;BME280;70412;55.048;73.268;2024-03-17T11:00:42;101168.75;;;2.06;54.13
59168;BME280;70412;55.048;73.268;2024-03-17T11:03:46;101164.13;;;2.20;53.44
59168;BME280;70412;55.048;73.268;2024-03-17T11:06:49;101169.66;;;2.01;53.71
59168;BME280;70412;55.048;73.268;2024-03-17T11:09:55;101174.78;;;2.06;54.01
59168;BME280;70412;55.048;73.268;2024-03-17T11:12:59;101168.47;;;2.18;54.74
59168;BME280;70412;55.048;73.268;2024-03-17T11:16:01;101151.66;;;1.97;52.52
59168;BME280;70412;55.048;73.268;2024-03-17T11:19:15;101175.69;;;2.02;51.93
59168;BME280;70412;55.048;73.268;2024-03-17T11:22:43;101181.22;;;1.85;51.77
59168;BME280;70412;55.048;73.268;2024-03-17T11:25:52;101179.00;;;1.67;51.72
59168;BME280;70412;55.048;73.268;2024-03-17T11:28:55;101147.28;;;1.59;52.07
59168;BME280;70412;55.048;73.268;2024-03-17T11:31:59;101153.81;;;3.23;50.41
59168;BME280;70412;55.048;73.268;2024-03-17T11:35:28;101164.19;;;5.24;44.79
59168;BME280;70412;55.048;73.268;2024-03-17T11:39:00;101161.63;;;5.71;42.65
59168;BME280;70412;55.048;73.268;2024-03-17T11:42:12;101157.06;;;5.77;43.34
59168;BME280;70412;55.048;73.268;2024-03-17T11:45:16;101144.78;;;5.81;42.53
59168;BME280;70412;55.048;73.268;2024-03-17T11:48:23;101164.91;;;6.22;42.71
59168;BME280;70412;55.048;73.268;2024-03-17T11:51:26;101153.28;;;6.53;42.25
59168;BME280;70412;55.048;73.268;2024-03-17T11:54:34;101151.56;;;6.52;41.07
59168;BME280;70412;55.048;73.268;2024-03-17T11:57:37;101153.88;;;6.38;41.71
59168;BME280;70412;55.048;73.268;2024-03-17T12:00:40;101145.72;;;6.47;41.59
59168;BME280;70412;55.048;73.268;2024-03-17T12:03:43;101145.88;;;6.64;41.57
59168;BME280;70412;55.048;73.268;2024-03-17T12:06:50;101137.16;;;6.65;41.48
59168;BME280;70412;55.048;73.268;2024-03-17T12:09:53;101134.72;;;6.39;41.28
59168;BME280;70412;55.048;73.268;2024-03-17T12:12:56;101139.22;;;6.57;41.32
59168;BME280;70412;55.048;73.268;2024-03-17T12:16:11;101141.03;;;6.11;41.42
59168;BME280;70412;55.048;73.268;2024-03-17T12:19:15;101139.00;;;5.96;41.87
59168;BME280;70412;55.048;73.268;2024-03-17T12:22:20;101135.88;;;5.40;43.04
59168;BME280;70412;55.048;73.268;2024-03-17T12:25:27;101132.38;;;5.16;44.30
59168;BME280;70412;55.048;73.268;2024-03-17T12:28:31;101126.81;;;5.01;43.88
59168;BME280;70412;55.048;73.268;2024-03-17T12:31:34;101123.50;;;4.70;44.81
59168;BME280;70412;55.048;73.268;2024-03-17T12:34:46;101124.34;;;4.16;45.64
59168;BME280;70412;55.048;73.268;2024-03-17T12:37:49;101086.00;;;3.68;46.57
59168;BME280;70412;55.048;73.268;2024-03-17T12:41:04;101124.47;;;3.54;46.76
59168;BME280;70412;55.048;73.268;2024-03-17T12:44:23;101112.94;;;3.33;48.62
59168;BME280;70412;55.048;73.268;2024-03-17T12:47:27;101124.13;;;3.03;48.87
59168;BME280;70412;55.048;73.268;2024-03-17T12:50:29;101123.75;;;2.48;49.71
59168;BME280;70412;55.048;73.268;2024-03-17T12:53:50;101127.47;;;1.99;50.78
59168;BME280;70412;55.048;73.268;2024-03-17T12:57:24;101125.09;;;1.47;51.78
59168;BME280;70412;55.048;73.268;2024-03-17T13:00:45;101120.81;;;0.49;54.00
59168;BME280;70412;55.048;73.268;2024-03-17T13:04:06;101132.03;;;-0.12;56.46
59168;BME280;70412;55.048;73.268;2024-03-17T13:07:29;101128.56;;;-0.83;58.33
59168;BME280;70412;55.048;73.268;2024-03-17T13:10:32;101128.16;;;-1.29;60.61
59168;BME280;70412;55.048;73.268;2024-03-17T13:13:37;101131.84;;;-1.63;62.28
59168;BME280;70412;55.048;73.268;2024-03-17T13:16:40;101130.31;;;-1.89;63.40
59168;BME280;70412;55.048;73.268;2024-03-17T13:20:03;101105.69;;;-2.35;66.34
59168;BME280;70412;55.048;73.268;2024-03-17T13:23:20;101119.44;;;-2.43;67.68
59168;BME280;70412;55.048;73.268;2024-03-17T13:26:35;101119.50;;;-2.57;69.28
59168;BME280;70412;55.048;73.268;2024-03-17T13:29:55;101134.09;;;-2.73;70.24
59168;BME280;70412;55.048;73.268;2024-03-17T13:32:58;101136.69;;;-2.80;72.28
59168;BME280;70412;55.048;73.268;2024-03-17T13:36:00;101140.09;;;-2.86;72.58
59168;BME280;70412;55.048;73.268;2024-03-17T13:39:31;101129.88;;;-2.97;74.12
59168;BME280;70412;55.048;73.268;2024-03-17T13:42:35;101130.75;;;-2.99;74.36
59168;BME280;70412;55.048;73.268;2024-03-17T13:45:42;101140.13;;;-3.06;74.95
59168;BME280;70412;55.048;73.268;2024-03-17T13:48:49;101127.31;;;-3.09;75.32
59168;BME280;70412;55.048;73.268;2024-03-17T13:51:59;101126.47;;;-3.16;74.79
59168;BME280;70412;55.048;73.268;2024-03-17T13:55:02;101118.78;;;-3.26;75.25
59168;BME280;70412;55.048;73.268;2024-03-17T13:58:06;101128.16;;;-3.19;74.76
59168;BME280;70412;55.048;73.268;2024-03-17T14:01:09;101123.91;;;-3.25;74.93
59168;BME280;70412;55.048;73.268;2024-03-17T14:04:13;101129.91;;;-3.26;74.21
59168;BME280;70412;55.048;73.268;2024-03-17T14:07:19;101127.34;;;-3.32;74.11
59168;BME280;70412;55.048;73.268;2024-03-17T14:10:23;101123.91;;;-3.37;74.23
59168;BME280;70412;55.048;73.268;2024-03-17T14:13:25;101131.63;;;-3.45;74.37
59168;BME280;70412;55.048;73.268;2024-03-17T14:16:30;101136.75;;;-3.45;74.47
59168;BME280;70412;55.048;73.268;2024-03-17T14:19:44;101112.78;;;-3.56;74.14
59168;BME280;70412;55.048;73.268;2024-03-17T14:22:48;101125.63;;;-3.53;73.92
59168;BME280;70412;55.048;73.268;2024-03-17T14:25:55;101136.72;;;-3.57;74.05
59168;BME280;70412;55.048;73.268;2024-03-17T14:29:16;101129.91;;;-3.61;73.76
59168;BME280;70412;55.048;73.268;2024-03-17T14:32:19;101128.19;;;-3.63;73.91
59168;BME280;70412;55.048;73.268;2024-03-17T14:35:39;101126.44;;;-3.72;73.87
59168;BME280;70412;55.048;73.268;2024-03-17T14:38:43;101123.03;;;-3.83;73.88
59168;BME280;70412;55.048;73.268;2024-03-17T14:41:45;101111.94;;;-3.82;73.60
59168;BME280;70412;55.048;73.268;2024-03-17T14:44:48;101109.34;;;-3.88;73.91
59168;BME280;70412;55.048;73.268;2024-03-17T14:47:51;101034.94;;;-4.40;74.40
59168;BME280;70412;55.048;73.268;2024-03-17T14:50:56;101112.75;;;-3.89;73.96
59168;BME280;70412;55.048;73.268;2024-03-17T14:53:58;101090.53;;;-4.12;73.57
59168;BME280;70412;55.048;73.268;2024-03-17T14:57:05;101115.31;;;-3.94;73.52
59168;BME280;70412;55.048;73.268;2024-03-17T15:00:09;101122.16;;;-4.02;73.67
59168;BME280;70412;55.048;73.268;2024-03-17T15:03:19;101119.56;;;-4.05;73.58
59168;BME280;70412;55.048;73.268;2024-03-17T15:10:04;101118.69;;;-4.16;73.72
59168;BME280;70412;55.048;73.268;2024-03-17T15:13:06;101116.09;;;-4.21;74.10
59168;BME280;70412;55.048;73.268;2024-03-17T15:16:09;101117.78;;;-4.29;74.50
59168;BME280;70412;55.048;73.268;2024-03-17T15:19:11;101121.16;;;-4.36;74.74
59168;BME280;70412;55.048;73.268;2024-03-17T15:22:14;101114.31;;;-4.40;74.83
59168;BME280;70412;55.048;73.268;2024-03-17T15:25:16;101080.13;;;-4.64;74.90
59168;BME280;70412;55.048;73.268;2024-03-17T15:28:19;101120.28;;;-4.44;74.75
59168;BME280;70412;55.048;73.268;2024-03-17T15:31:22;101099.72;;;-4.66;74.38
59168;BME280;70412;55.048;73.268;2024-03-17T15:34:24;101113.41;;;-4.53;74.53
59168;BME280;70412;55.048;73.268;2024-03-17T15:37:27;101109.13;;;-4.60;74.36
59168;BME280;70412;55.048;73.268;2024-03-17T15:40:29;101107.38;;;-4.72;74.37
59168;BME280;70412;55.048;73.268;2024-03-17T15:43:36;101118.50;;;-4.68;74.04
59168;BME280;70412;55.048;73.268;2024-03-17T15:46:41;101123.56;;;-4.71;74.20
59168;BME280;70412;55.048;73.268;2024-03-17T15:49:45;101109.03;;;-4.84;74.59
59168;BME280;70412;55.048;73.268;2024-03-17T15:52:47;101114.16;;;-4.80;74.76
59168;BME280;70412;55.048;73.268;2024-03-17T15:59:29;101120.06;;;-4.90;74.52
59168;BME280;70412;55.048;73.268;2024-03-17T16:02:32;101088.38;;;-5.15;74.79
59168;BME280;70412;55.048;73.268;2024-03-17T16:05:35;101122.59;;;-4.99;75.00
59168;BME280;70412;55.048;73.268;2024-03-17T16:08:44;101116.56;;;-5.06;74.97
59168;BME280;70412;55.048;73.268;2024-03-17T16:11:47;101116.53;;;-5.10;75.24
59168;BME280;70412;55.048;73.268;2024-03-17T16:14:50;101111.41;;;-5.15;75.57
59168;BME280;70412;55.048;73.268;2024-03-17T16:17:54;101115.59;;;-5.21;76.32
59168;BME280;70412;55.048;73.268;2024-03-17T16:21:00;101101.94;;;-5.24;75.79
59168;BME280;70412;55.048;73.268;2024-03-17T16:24:09;101112.16;;;-5.27;76.27